Time;durP1;ratioP1;P1;durP2;ratioP2;P2;SDS_P1;SDS_P2;PMS_P1;PMS_P2;Temp;Humidity;BMP_temperature;BMP_pressure;BME280_temperature;BME280_humidity;BME280_pressure;Samples;Min_cycle;Max_cycle;Signal;HPM_P1;HPM_P2
2022/08/19 00:02:03;;;;;;;12.02;7.88;;;;;;;19.48;75.75;99625.09;5054588;28;20044;-81
2022/08/19 00:04:34;;;;;;;14.43;9.13;;;;;;;19.46;75.62;99615.47;5054448;28;20064;-80
2022/08/19 00:07:00;;;;;;;20.40;8.02;;;;;;;19.37;76.04;99615.50;5054535;28;20037;-80
2022/08/19 00:09:27;;;;;;;11.45;7.43;;;;;;;19.39;75.63;99623.44;5052301;28;20047;-80
2022/08/19 00:11:55;;;;;;;11.95;7.95;;;;;;;19.38;75.91;99619.06;5054554;28;20040;-80
2022/08/19 00:14:21;;;;;;;11.88;8.88;;;;;;;19.36;76.20;99613.88;5053883;28;20411;-81
2022/08/19 00:16:47;;;;;;;10.75;6.97;;;;;;;19.33;75.78;99617.28;5054051;28;20047;-78
2022/08/19 00:19:14;;;;;;;15.07;8.02;;;;;;;19.27;76.17;99618.59;5050970;28;20041;-78
2022/08/19 00:21:39;;;;;;;12.38;8.60;;;;;;;19.17;76.95;99622.50;5052187;28;20037;-81
2022/08/19 00:24:09;;;;;;;13.13;8.07;;;;;;;19.20;76.41;99617.13;5051884;28;20045;-81
2022/08/19 00:26:36;;;;;;;17.08;9.15;;;;;;;19.25;76.61;99618.94;5053373;28;20120;-85
2022/08/19 00:29:01;;;;;;;16.73;7.70;;;;;;;19.30;76.37;99631.78;5054147;28;20431;-84
2022/08/19 00:31:27;;;;;;;16.38;8.27;;;;;;;19.23;76.30;99621.22;5075285;28;20037;-83
2022/08/19 00:33:53;;;;;;;12.43;9.02;;;;;;;19.19;76.77;99626.59;5071771;28;20045;-80
2022/08/19 00:36:19;;;;;;;14.77;9.93;;;;;;;19.18;76.92;99624.16;5059850;28;20045;-78
2022/08/19 00:38:45;;;;;;;14.55;8.70;;;;;;;19.17;76.48;99619.75;5054867;28;20053;-85
2022/08/19 00:41:14;;;;;;;15.52;9.80;;;;;;;19.12;76.50;99623.44;5035561;28;20033;-84
2022/08/19 00:43:40;;;;;;;15.23;8.45;;;;;;;19.12;76.66;99615.16;5018220;28;20481;-86
2022/08/19 00:46:06;;;;;;;13.43;8.85;;;;;;;19.13;76.57;99623.16;5035748;28;20033;-85
2022/08/19 00:48:33;;;;;;;13.93;9.00;;;;;;;19.08;76.97;99616.97;5054887;28;20124;-84
2022/08/19 00:50:59;;;;;;;12.98;8.88;;;;;;;19.06;76.96;99619.25;5067629;28;20036;-84
2022/08/19 00:53:28;;;;;;;15.57;9.02;;;;;;;19.04;77.10;99618.78;5071588;28;20044;-78
2022/08/19 00:55:56;;;;;;;15.45;9.23;;;;;;;19.06;77.02;99611.75;5071591;28;20044;-78
2022/08/19 00:58:27;;;;;;;13.60;9.00;;;;;;;19.00;77.27;99613.88;5066064;28;20044;-81
2022/08/19 01:00:52;;;;;;;18.17;10.15;;;;;;;18.98;77.23;99607.88;5049377;28;20051;-81
2022/08/19 01:03:20;;;;;;;18.85;11.10;;;;;;;18.89;77.83;99607.06;5050937;28;20053;-77
2022/08/19 01:05:47;;;;;;;17.27;9.60;;;;;;;18.89;77.68;99602.38;5023141;28;20049;-77
2022/08/19 01:08:15;;;;;;;16.58;10.50;;;;;;;18.93;77.87;99601.72;5052933;28;20067;-85
2022/08/19 01:10:46;;;;;;;15.25;10.27;;;;;;;18.93;77.90;99607.22;5052667;28;20635;-86
2022/08/19 01:13:14;;;;;;;16.65;11.30;;;;;;;18.93;78.06;99602.53;5051871;28;20084;-78
2022/08/19 01:15:44;;;;;;;18.60;11.05;;;;;;;18.82;78.07;99606.72;5045147;28;20041;-79
2022/08/19 01:18:13;;;;;;;19.77;12.10;;;;;;;18.84;77.96;99604.47;5050294;28;20043;-81
2022/08/19 01:20:41;;;;;;;17.08;11.90;;;;;;;18.86;77.70;99610.47;5047730;28;20102;-81
2022/08/19 01:23:06;;;;;;;13.88;9.77;;;;;;;18.81;77.68;99614.22;5053263;28;20116;-83
2022/08/19 01:25:41;;;;;;;21.98;11.00;;;;;;;18.87;77.65;99609.34;5054385;28;20140;-82
2022/08/19 01:28:07;;;;;;;14.85;10.15;;;;;;;18.78;78.35;99623.97;5035252;28;20037;-81
2022/08/19 01:30:35;;;;;;;15.77;10.77;;;;;;;18.82;77.96;99606.72;5036408;28;20044;-81
2022/08/19 01:33:01;;;;;;;16.85;10.75;;;;;;;18.84;78.03;99609.97;5033811;28;20033;-84
2022/08/19 01:35:29;;;;;;;20.75;10.98;;;;;;;18.81;78.26;99599.59;5034555;28;20033;-85
2022/08/19 01:38:07;;;;;;;19.20;11.63;;;;;;;18.84;78.35;99596.19;5034794;28;20041;-85
2022/08/19 01:40:35;;;;;;;18.08;11.02;;;;;;;18.79;78.77;99591.66;5019236;28;20051;-86
2022/08/19 01:43:02;;;;;;;21.20;12.13;;;;;;;18.78;78.78;99593.59;5043514;28;20072;-81
2022/08/19 01:45:31;;;;;;;17.98;11.40;;;;;;;18.80;78.79;99598.78;5050908;28;20052;-80
2022/08/19 01:47:58;;;;;;;17.25;10.63;;;;;;;18.83;78.30;99594.56;5047502;28;20055;-84
2022/08/19 01:50:23;;;;;;;16.27;12.20;;;;;;;18.84;78.63;99593.41;5052655;28;20041;-82
2022/08/19 01:52:49;;;;;;;18.30;10.35;;;;;;;18.78;78.41;99599.09;5036504;28;20041;-85
2022/08/19 01:55:18;;;;;;;18.45;12.98;;;;;;;18.75;78.77;99599.75;5054475;28;20037;-85
2022/08/19 01:57:49;;;;;;;19.25;12.50;;;;;;;18.76;79.19;99615.19;5052140;28;20047;-77
2022/08/19 02:00:18;;;;;;;17.02;12.45;;;;;;;18.75;78.83;99599.75;5047109;28;20049;-77
2022/08/19 02:02:43;;;;;;;20.45;11.00;;;;;;;18.72;78.76;99596.81;5051996;28;20189;-84
2022/08/19 02:05:11;;;;;;;16.30;10.30;;;;;;;18.63;78.68;99591.31;5053777;28;20131;-85
2022/08/19 02:07:36;;;;;;;15.10;10.35;;;;;;;18.63;78.22;99596.84;5053543;28;20116;-81
2022/08/19 02:10:08;;;;;;;23.05;11.48;;;;;;;18.62;78.47;99593.25;5051851;28;20179;-80
2022/08/19 02:12:35;;;;;;;15.25;10.52;;;;;;;18.53;79.36;99596.00;5052419;28;20395;-84
2022/08/19 02:15:01;;;;;;;16.30;11.18;;;;;;;18.53;79.36;99590.47;5036011;28;20041;-84
2022/08/19 02:17:28;;;;;;;25.42;10.85;;;;;;;18.57;78.97;99584.31;5053799;28;20040;-82
2022/08/19 02:19:55;;;;;;;18.02;11.40;;;;;;;18.60;78.77;99578.16;5031954;28;20065;-83
2022/08/19 02:22:20;;;;;;;21.25;12.82;;;;;;;18.54;78.75;99581.09;5033588;28;20057;-85
2022/08/19 02:24:47;;;;;;;18.02;11.25;;;;;;;18.49;79.29;99589.50;5033443;28;20476;-85
2022/08/19 02:27:13;;;;;;;25.55;13.75;;;;;;;18.42;79.66;99586.41;5033717;28;20583;-84
2022/08/19 02:29:39;;;;;;;19.92;13.18;;;;;;;18.36;79.87;99593.22;5045163;28;20040;-84
2022/08/19 02:32:04;;;;;;;21.73;12.47;;;;;;;18.43;79.83;99590.78;5054159;28;20037;-85
2022/08/19 02:34:29;;;;;;;19.60;12.85;;;;;;;18.31;79.96;99592.25;5053470;28;20250;-85
2022/08/19 02:36:54;;;;;;;17.83;11.02;;;;;;;18.39;79.56;99595.31;5053823;28;20033;-85
2022/08/19 02:39:20;;;;;;;17.57;11.20;;;;;;;18.47;79.41;99590.97;5043925;28;20477;-85
2022/08/19 02:41:45;;;;;;;20.17;13.30;;;;;;;18.51;79.62;99594.72;5045581;28;20254;-84
2022/08/19 02:44:11;;;;;;;18.17;12.32;;;;;;;18.55;79.35;99596.50;5052067;28;20037;-84
2022/08/19 02:46:37;;;;;;;18.25;12.55;;;;;;;18.49;79.73;99592.25;5049370;28;20419;-77
2022/08/19 02:49:07;;;;;;;17.95;12.50;;;;;;;18.44;79.46;99586.91;5040085;28;20107;-78
2022/08/19 02:51:36;;;;;;;19.60;12.68;;;;;;;18.47;79.94;99594.53;5030706;28;20121;-83
2022/08/19 02:54:02;;;;;;;18.52;12.50;;;;;;;18.61;80.49;99597.13;5032380;28;20088;-83
2022/08/19 02:56:28;;;;;;;16.48;10.55;;;;;;;18.69;79.22;99592.78;5031456;28;20033;-77
2022/08/19 02:58:54;;;;;;;18.33;12.05;;;;;;;18.63;79.28;99592.09;5037752;28;20032;-77
2022/08/19 03:01:21;;;;;;;18.38;11.93;;;;;;;18.58;79.33;99591.47;5055260;28;20037;-84
2022/08/19 03:03:46;;;;;;;19.98;11.77;;;;;;;18.62;79.09;99586.91;5057253;28;20664;-84
2022/08/19 03:06:15;;;;;;;17.70;11.87;;;;;;;18.61;79.22;99596.34;5056682;28;20044;-81
2022/08/19 03:08:42;;;;;;;18.20;10.80;;;;;;;18.56;79.35;99600.06;5055173;28;20342;-81
2022/08/19 03:11:20;;;;;;;19.73;12.02;;;;;;;18.50;80.05;99602.19;5055529;28;20041;-81
2022/08/19 03:13:48;;;;;;;19.58;14.23;;;;;;;18.57;79.78;99611.94;5054728;28;20037;-80
2022/08/19 03:16:14;;;;;;;21.45;14.70;;;;;;;18.62;80.00;99606.25;5054139;28;20037;-77
2022/08/19 03:18:39;;;;;;;18.77;12.75;;;;;;;18.60;79.52;99606.56;5051380;28;20025;-78
2022/08/19 03:21:05;;;;;;;19.00;12.57;;;;;;;18.58;79.44;99603.31;5054365;28;20037;-83
2022/08/19 03:23:31;;;;;;;19.15;12.15;;;;;;;18.47;79.90;99596.50;5039046;28;20045;-83
2022/08/19 03:25:56;;;;;;;20.48;13.52;;;;;;;18.39;80.53;99596.16;5036627;28;20053;-82
2022/08/19 03:28:22;;;;;;;20.55;12.57;;;;;;;18.40;80.43;99595.03;5034666;28;20049;-80
2022/08/19 03:31:00;;;;;;;20.90;12.80;;;;;;;18.50;80.14;99595.84;5034983;28;20042;-83
2022/08/19 03:33:26;;;;;;;23.05;14.35;;;;;;;18.47;79.78;99596.50;5036874;28;20037;-83
2022/08/19 03:36:11;;;;;;;19.63;13.20;;;;;;;18.40;80.01;99592.25;5037063;28;20496;-84
2022/08/19 03:38:40;;;;;;;18.65;12.32;;;;;;;18.38;80.20;99597.28;5035421;28;20056;-85
2022/08/19 03:41:08;;;;;;;23.17;13.85;;;;;;;18.30;80.56;99587.88;5036463;28;20469;-85
2022/08/19 03:43:38;;;;;;;22.20;13.55;;;;;;;18.26;80.79;99595.16;5036743;28;20473;-84
2022/08/19 03:46:12;;;;;;;19.23;12.30;;;;;;;18.34;80.69;99603.78;5035973;28;20046;-81
2022/08/19 03:48:39;;;;;;;19.30;12.32;;;;;;;18.26;80.65;99605.38;5031005;28;20112;-81
2022/08/19 03:51:05;;;;;;;18.50;11.73;;;;;;;18.22;81.10;99590.59;5048346;28;20101;-80
2022/08/19 03:53:33;;;;;;;19.38;13.10;;;;;;;18.23;80.78;99598.56;5054272;28;20120;-80
2022/08/19 03:56:01;;;;;;;18.58;11.98;;;;;;;18.26;81.40;99602.63;5037303;28;20484;-85
2022/08/19 03:58:28;;;;;;;20.35;12.52;;;;;;;18.27;81.18;99594.00;5053671;28;20090;-85
2022/08/19 04:00:55;;;;;;;18.80;11.68;;;;;;;18.41;80.93;99609.63;5037021;28;20550;-80
2022/08/19 04:03:21;;;;;;;19.50;13.27;;;;;;;18.34;80.62;99612.88;5053577;28;20098;-80
2022/08/19 04:05:47;;;;;;;25.40;14.75;;;;;;;18.25;81.29;99610.06;5053665;28;20029;-85
2022/08/19 04:08:18;;;;;;;24.65;13.30;;;;;;;18.25;81.03;99607.31;5052434;28;20037;-85
2022/08/19 04:10:44;;;;;;;23.63;13.60;;;;;;;18.23;80.88;99603.25;5018681;28;20049;-83
2022/08/19 04:13:09;;;;;;;22.38;12.48;;;;;;;18.16;81.03;99601.75;5015485;28;20061;-84
2022/08/19 04:15:41;;;;;;;19.70;13.13;;;;;;;18.06;81.51;99611.13;5003240;28;20029;-83
2022/08/19 04:18:08;;;;;;;19.25;11.60;;;;;;;18.05;81.66;99612.28;5026780;28;20034;-82
2022/08/19 04:20:44;;;;;;;17.65;12.20;;;;;;;18.17;81.44;99610.84;5033982;28;20734;-84
2022/08/19 04:23:10;;;;;;;18.60;13.60;;;;;;;18.13;81.56;99613.41;5036215;28;20061;-85
2022/08/19 04:25:37;;;;;;;21.00;14.05;;;;;;;18.14;81.79;99617.00;5036422;28;20081;-85
2022/08/19 04:28:03;;;;;;;17.70;11.32;;;;;;;18.19;81.62;99603.91;5035872;28;20037;-84
2022/08/19 04:30:28;;;;;;;17.05;11.52;;;;;;;18.22;81.26;99607.97;5019682;28;20041;-77
2022/08/19 04:32:53;;;;;;;17.20;10.05;;;;;;;18.36;81.27;99618.06;5011804;28;20087;-77
2022/08/19 04:35:19;;;;;;;17.63;11.53;;;;;;;18.50;80.93;99618.75;5012157;28;20038;-83
2022/08/19 04:37:44;;;;;;;15.95;10.85;;;;;;;18.59;81.59;99620.69;5015571;28;20338;-83
2022/08/19 04:42:54;;;;;;;21.35;11.70;;;;;;;18.84;80.22;99626.53;5037754;28;20515;-77
2022/08/19 04:45:20;;;;;;;19.37;11.47;;;;;;;18.94;80.22;99631.75;5031902;28;20046;-85
2022/08/19 04:47:45;;;;;;;19.90;11.98;;;;;;;18.98;80.04;99629.16;5021481;28;20327;-85
2022/08/19 04:50:11;;;;;;;27.50;14.50;;;;;;;19.04;79.52;99630.63;5035377;28;20040;-81
2022/08/19 04:52:41;;;;;;;20.48;11.30;;;;;;;18.98;80.10;99631.91;5033893;28;20040;-84
2022/08/19 04:55:08;;;;;;;19.13;11.57;;;;;;;18.93;80.56;99630.16;5017439;28;20715;-84
2022/08/19 04:57:33;;;;;;;18.33;12.02;;;;;;;18.89;80.59;99629.16;5017647;28;20124;-83
2022/08/19 04:59:58;;;;;;;18.30;11.25;;;;;;;18.93;80.73;99641.19;5032935;28;20127;-84
2022/08/19 05:02:24;;;;;;;17.35;11.48;;;;;;;18.97;80.83;99639.41;5034947;28;20120;-84
2022/08/19 05:04:49;;;;;;;17.17;10.90;;;;;;;19.01;80.64;99636.81;5034961;28;20447;-84
2022/08/19 05:07:15;;;;;;;17.23;11.45;;;;;;;19.01;80.62;99634.84;5034939;28;20033;-84
2022/08/19 05:09:40;;;;;;;17.88;12.15;;;;;;;18.99;80.50;99645.41;5034092;28;20041;-85
2022/08/19 05:12:06;;;;;;;20.33;11.93;;;;;;;19.07;80.22;99645.72;5015897;28;20037;-81
2022/08/19 05:14:31;;;;;;;18.73;12.60;;;;;;;19.21;79.73;99649.16;5032817;28;20251;-80
2022/08/19 05:16:56;;;;;;;16.98;10.52;;;;;;;19.35;78.90;99653.69;5034665;28;20065;-84
2022/08/19 05:24:50;;;;;;;17.73;11.65;;;;;;;19.54;77.67;99652.53;5042755;28;19962;-80
2022/08/19 05:27:16;;;;;;;16.08;11.25;;;;;;;19.57;77.46;99652.69;5051188;28;20059;-78
2022/08/19 05:29:41;;;;;;;18.47;11.33;;;;;;;19.58;77.41;99650.75;5049121;28;20045;-78
2022/08/19 05:32:10;;;;;;;16.33;11.47;;;;;;;19.58;77.42;99643.25;5053217;28;20355;-84
2022/08/19 05:34:37;;;;;;;19.35;9.90;;;;;;;19.61;77.32;99650.06;5054059;28;20268;-83
2022/08/19 05:37:04;;;;;;;15.88;10.55;;;;;;;19.58;77.58;99643.25;5054230;28;20455;-84
2022/08/19 05:39:33;;;;;;;17.90;10.98;;;;;;;19.64;77.08;99638.38;5043493;28;20064;-85
2022/08/19 05:42:01;;;;;;;16.05;11.05;;;;;;;19.73;77.08;99637.53;5049115;28;20056;-83
2022/08/19 05:44:32;;;;;;;19.23;10.02;;;;;;;19.78;76.96;99642.88;5054303;28;20416;-80
2022/08/19 05:47:02;;;;;;;25.13;10.60;;;;;;;19.85;76.83;99643.19;5050733;28;20488;-79
2022/08/19 05:49:29;;;;;;;16.33;10.48;;;;;;;19.90;76.86;99647.72;5046863;28;20040;-79
2022/08/19 05:51:55;;;;;;;14.73;10.43;;;;;;;19.95;76.45;99650.31;5049685;28;20071;-76
2022/08/19 05:54:22;;;;;;;16.02;10.55;;;;;;;20.01;76.31;99648.97;5049271;28;20053;-76
2022/08/19 05:56:49;;;;;;;14.63;10.35;;;;;;;20.03;75.92;99645.88;5049229;28;20057;-76
2022/08/19 05:59:16;;;;;;;17.20;10.75;;;;;;;20.02;76.36;99639.53;5047794;28;20032;-76
2022/08/19 06:01:44;;;;;;;16.45;11.52;;;;;;;19.91;76.56;99647.38;5049689;28;20051;-83
2022/08/19 06:04:10;;;;;;;19.25;11.27;;;;;;;19.87;77.11;99642.84;5053102;28;20053;-83
2022/08/19 06:06:35;;;;;;;12.93;8.77;;;;;;;19.97;76.72;99644.44;5036116;28;20053;-83
2022/08/19 06:09:06;;;;;;;15.25;10.15;;;;;;;20.12;76.22;99649.44;5054003;28;20039;-83
2022/08/19 06:11:33;;;;;;;16.17;10.57;;;;;;;20.17;75.67;99646.50;5033314;28;20044;-84
2022/08/19 06:14:09;;;;;;;17.17;11.18;;;;;;;20.24;75.70;99653.47;5032650;28;20076;-84
2022/08/19 06:16:37;;;;;;;19.02;10.18;;;;;;;20.30;75.26;99650.16;5037449;28;20099;-83
2022/08/19 06:19:06;;;;;;;15.10;9.55;;;;;;;20.28;75.74;99651.63;5045238;28;20033;-83
2022/08/19 06:21:33;;;;;;;15.32;10.50;;;;;;;20.18;75.93;99653.63;5051827;28;20044;-80
2022/08/19 06:23:59;;;;;;;21.95;10.70;;;;;;;20.20;76.38;99649.75;5049893;28;20041;-79
2022/08/19 06:26:26;;;;;;;19.77;10.43;;;;;;;20.11;76.26;99642.28;5051927;28;20222;-83
2022/08/19 06:28:52;;;;;;;22.98;10.07;;;;;;;20.18;75.97;99637.03;5052540;28;20073;-83
2022/08/19 06:31:20;;;;;;;15.30;9.73;;;;;;;20.09;76.15;99641.81;5052356;28;20065;-81
2022/08/19 06:33:47;;;;;;;17.98;11.02;;;;;;;20.02;76.40;99641.47;5033201;28;20075;-80
2022/08/19 06:36:29;;;;;;;18.55;11.75;;;;;;;20.12;76.61;99643.09;5051955;28;20037;-83
2022/08/19 06:38:57;;;;;;;19.65;12.23;;;;;;;20.27;75.38;99638.94;5052150;28;20049;-83
2022/08/19 06:41:22;;;;;;;22.05;13.52;;;;;;;20.07;76.07;99638.53;5052413;28;20029;-82
2022/08/19 06:43:48;;;;;;;18.27;12.32;;;;;;;19.98;76.42;99651.56;5051085;28;20098;-80
2022/08/19 06:46:15;;;;;;;19.23;13.00;;;;;;;19.89;77.14;99648.88;5050928;28;20048;-81
2022/08/19 06:48:41;;;;;;;16.73;11.50;;;;;;;19.99;76.76;99651.28;5046092;28;20040;-81
2022/08/19 06:51:07;;;;;;;16.48;11.63;;;;;;;19.93;77.17;99652.59;5031484;28;20034;-82
2022/08/19 06:53:33;;;;;;;19.75;13.20;;;;;;;19.90;77.26;99648.53;5032678;28;20461;-83
2022/08/19 06:56:02;;;;;;;27.20;13.20;;;;;;;19.77;77.62;99655.09;5031799;28;20042;-76
2022/08/19 06:58:31;;;;;;;20.35;13.85;;;;;;;19.91;77.65;99658.44;5030897;28;20044;-76
2022/08/19 07:01:02;;;;;;;21.83;14.38;;;;;;;20.10;76.68;99656.44;5049468;28;20040;-83
2022/08/19 07:03:31;;;;;;;26.63;14.77;;;;;;;20.30;76.20;99650.16;5052929;28;20082;-82
2022/08/19 07:05:56;;;;;;;20.38;13.45;;;;;;;20.40;75.78;99657.25;5035851;28;20131;-82
2022/08/19 07:08:21;;;;;;;21.45;15.50;;;;;;;20.51;76.05;99656.88;5053464;28;20049;-82
2022/08/19 07:10:47;;;;;;;38.60;16.30;;;;;;;20.55;75.57;99660.59;5035257;28;20545;-76
2022/08/19 07:13:13;;;;;;;19.40;13.60;;;;;;;20.55;75.80;99657.84;5038064;28;20342;-76
2022/08/19 07:15:38;;;;;;;21.23;14.05;;;;;;;20.56;75.61;99656.69;5043934;28;20037;-78
2022/08/19 07:18:04;;;;;;;32.95;14.80;;;;;;;20.59;75.40;99656.03;5037514;28;20443;-77
2022/08/19 07:20:30;;;;;;;20.73;14.05;;;;;;;20.60;75.86;99662.38;5047142;28;20121;-83
2022/08/19 07:22:55;;;;;;;23.73;15.65;;;;;;;20.44;76.39;99662.16;5053116;28;20037;-83
2022/08/19 07:25:21;;;;;;;19.77;13.02;;;;;;;20.47;76.31;99667.00;5053078;28;20044;-81
2022/08/19 07:27:49;;;;;;;22.48;14.35;;;;;;;20.72;75.67;99669.94;5051187;28;20037;-81
2022/08/19 07:30:14;;;;;;;22.42;13.95;;;;;;;20.60;76.16;99668.72;5038133;28;20097;-81
2022/08/19 07:32:40;;;;;;;21.33;13.30;;;;;;;20.69;75.92;99676.16;5013596;28;20125;-81
2022/08/19 07:35:06;;;;;;;23.83;14.75;;;;;;;20.64;76.47;99677.97;5031018;28;20313;-80
2022/08/19 07:37:31;;;;;;;24.65;15.50;;;;;;;20.40;76.96;99682.19;5013094;28;20030;-81
2022/08/19 07:39:57;;;;;;;33.60;13.67;;;;;;;20.62;76.80;99685.81;5044660;28;20048;-80
2022/08/19 07:42:22;;;;;;;23.87;14.77;;;;;;;20.67;76.58;99683.97;5052078;28;20055;-83
2022/08/19 07:44:47;;;;;;;20.92;13.50;;;;;;;20.71;76.54;99684.94;5054536;28;20312;-83
2022/08/19 07:47:15;;;;;;;21.15;13.85;;;;;;;20.77;76.20;99684.41;5035497;28;20045;-81
2022/08/19 07:49:41;;;;;;;20.38;11.73;;;;;;;20.96;75.76;99683.16;5050828;28;20059;-82
2022/08/19 07:52:08;;;;;;;19.95;12.27;;;;;;;20.77;75.61;99694.66;5053502;28;20044;-84
2022/08/19 07:54:37;;;;;;;19.05;12.05;;;;;;;20.79;75.55;99697.13;5056003;28;20479;-83
2022/08/19 07:57:03;;;;;;;21.52;12.23;;;;;;;20.95;75.43;99698.13;5056264;28;20044;-84
2022/08/19 07:59:29;;;;;;;22.25;12.40;;;;;;;21.04;74.64;99700.06;5048286;28;20135;-84
2022/08/19 08:01:55;;;;;;;17.77;12.02;;;;;;;21.04;74.97;99703.66;5035954;28;20033;-84
2022/08/19 08:09:51;;;;;;;21.20;13.77;;;;;;;21.01;74.34;99720.97;5045052;28;20056;-79
2022/08/19 08:12:24;;;;;;;18.77;12.82;;;;;;;20.88;75.03;99722.81;5051782;28;20037;-78
2022/08/19 08:14:53;;;;;;;21.17;12.33;;;;;;;21.02;74.65;99727.28;5052322;28;20044;-78
2022/08/19 08:17:22;;;;;;;19.52;12.98;;;;;;;21.03;74.57;99729.72;5051833;28;20156;-78
2022/08/19 08:19:50;;;;;;;20.23;13.07;;;;;;;21.01;74.72;99723.72;5050479;28;20110;-78
2022/08/19 08:25:11;;;;;;;17.95;12.93;;;;;;;21.29;73.86;99730.69;5055294;28;20060;-83
2022/08/19 08:27:39;;;;;;;22.30;13.30;;;;;;;21.06;74.89;99731.84;5055370;28;20531;-83
2022/08/19 08:30:09;;;;;;;19.70;12.70;;;;;;;21.18;74.46;99736.63;5040300;28;20438;-84
2022/08/19 08:32:36;;;;;;;17.17;11.13;;;;;;;21.31;74.43;99728.38;5035090;28;20049;-84
2022/08/19 08:35:03;;;;;;;18.48;11.55;;;;;;;21.63;73.05;99733.47;5034802;28;20391;-83
2022/08/19 08:37:30;;;;;;;22.90;12.35;;;;;;;21.50;73.56;99724.31;5034321;28;20370;-81
2022/08/19 08:39:55;;;;;;;23.70;13.10;;;;;;;21.44;74.05;99729.22;5028525;28;20041;-80
2022/08/19 08:42:32;;;;;;;25.52;16.10;;;;;;;21.77;72.94;99733.19;5049917;28;20041;-79
2022/08/19 08:45:14;;;;;;;44.83;15.57;;;;;;;21.96;72.47;99723.56;5046876;28;20492;-79
2022/08/19 08:47:42;;;;;;;23.02;16.27;;;;;;;22.04;72.36;99730.97;5020311;28;20060;-80
2022/08/19 08:50:15;;;;;;;22.75;14.35;;;;;;;22.10;72.17;99728.78;5050578;28;20045;-80
2022/08/19 08:52:47;;;;;;;27.37;17.83;;;;;;;21.97;72.31;99731.53;5051923;28;20047;-79
2022/08/19 08:55:16;;;;;;;29.40;17.45;;;;;;;22.12;71.91;99726.47;5051530;28;20051;-81
2022/08/19 08:57:54;;;;;;;21.65;14.55;;;;;;;22.18;71.66;99725.09;5053863;28;20523;-82
2022/08/19 09:00:32;;;;;;;22.25;15.05;;;;;;;22.41;70.93;99726.63;5039482;28;20045;-84
2022/08/19 09:03:00;;;;;;;23.20;15.15;;;;;;;22.38;70.03;99728.09;5035361;28;20042;-84
2022/08/19 09:05:38;;;;;;;26.70;17.17;;;;;;;22.57;70.24;99718.41;5035305;28;20597;-84
2022/08/19 09:08:24;;;;;;;30.48;19.10;;;;;;;22.60;69.33;99723.25;5017452;28;20033;-84
2022/08/19 09:10:53;;;;;;;28.02;17.52;;;;;;;22.71;69.45;99718.06;5035360;28;20083;-84
2022/08/19 09:13:31;;;;;;;24.45;16.92;;;;;;;22.85;67.51;99723.25;5053943;28;20037;-84
2022/08/19 09:16:05;;;;;;;25.90;18.63;;;;;;;22.90;67.18;99725.81;5023334;28;20052;-81
2022/08/19 09:18:58;;;;;;;24.95;17.42;;;;;;;23.07;66.52;99712.78;5058940;28;20028;-81
2022/08/19 09:21:25;;;;;;;27.33;16.63;;;;;;;23.21;65.28;99727.09;5054475;28;20456;-86
2022/08/19 09:23:51;;;;;;;33.30;19.20;;;;;;;23.23;65.59;99717.63;5054987;28;20044;-86
2022/08/19 09:26:22;;;;;;;24.80;17.10;;;;;;;23.23;63.76;99720.41;5054863;28;20044;-83
2022/08/19 09:28:49;;;;;;;22.65;15.57;;;;;;;23.50;63.77;99727.16;5053832;28;20575;-83
2022/08/19 09:31:18;;;;;;;22.90;17.00;;;;;;;23.54;62.88;99719.72;5052999;28;20037;-78
2022/08/19 09:33:43;;;;;;;34.75;19.33;;;;;;;23.59;63.30;99715.88;5050462;28;20036;-78
2022/08/19 09:36:12;;;;;;;26.40;19.58;;;;;;;23.60;62.80;99711.09;5050649;28;20044;-78
2022/08/19 09:38:40;;;;;;;26.95;17.77;;;;;;;23.57;63.67;99711.81;5049381;28;20060;-78
2022/08/19 09:41:16;;;;;;;25.42;19.95;;;;;;;23.51;63.39;99714.06;5033926;28;20388;-81
2022/08/19 09:43:44;;;;;;;24.67;19.10;;;;;;;23.58;63.91;99710.66;5052502;28;20053;-82
2022/08/19 09:46:09;;;;;;;25.10;19.00;;;;;;;23.67;64.07;99716.88;5051351;28;20060;-86
2022/08/19 09:48:45;;;;;;;27.83;20.00;;;;;;;23.54;63.29;99708.59;5051481;28;20061;-86
2022/08/19 09:51:16;;;;;;;32.20;22.77;;;;;;;23.59;62.87;99710.31;5033873;28;20051;-83
2022/08/19 09:53:43;;;;;;;38.65;22.70;;;;;;;23.34;63.77;99707.59;5034066;28;20051;-83
2022/08/19 09:56:08;;;;;;;31.65;21.70;;;;;;;23.16;64.75;99705.13;5034345;28;20519;-84
2022/08/19 09:58:35;;;;;;;32.20;20.10;;;;;;;23.32;64.87;99712.72;5036550;28;20059;-84
2022/08/19 10:01:01;;;;;;;27.02;17.40;;;;;;;23.21;64.21;99715.16;5054486;28;20045;-87
2022/08/19 10:03:28;;;;;;;30.33;19.88;;;;;;;23.15;63.12;99720.16;5054134;28;20043;-87
2022/08/19 10:05:57;;;;;;;23.45;17.88;;;;;;;23.33;62.94;99712.34;5052740;28;20032;-79
2022/08/19 10:08:34;;;;;;;23.98;17.33;;;;;;;23.65;62.25;99714.47;5049249;28;20037;-79
2022/08/19 10:11:01;;;;;;;23.52;17.13;;;;;;;23.70;61.17;99712.56;5049971;28;20056;-78
2022/08/19 10:13:28;;;;;;;23.80;17.35;;;;;;;23.78;60.34;99709.63;5049861;28;20037;-78
2022/08/19 10:15:56;;;;;;;26.25;17.33;;;;;;;23.90;60.14;99708.75;5043184;28;20041;-79
2022/08/19 10:18:22;;;;;;;22.63;17.15;;;;;;;24.08;59.20;99711.16;5040651;28;20049;-78
2022/08/19 10:20:49;;;;;;;24.90;17.88;;;;;;;24.05;59.53;99711.91;5049693;28;20090;-81
2022/08/19 10:23:15;;;;;;;23.35;14.68;;;;;;;24.33;59.46;99711.03;5051473;28;20044;-82
2022/08/19 10:25:41;;;;;;;18.23;13.73;;;;;;;24.30;57.69;99702.59;5051843;28;20049;-79
2022/08/19 10:28:07;;;;;;;16.63;12.07;;;;;;;24.48;57.16;99708.59;5049859;28;20037;-79
2022/08/19 10:30:33;;;;;;;20.42;12.75;;;;;;;24.58;57.37;99705.25;5048776;28;20163;-81
2022/08/19 10:32:59;;;;;;;25.42;13.18;;;;;;;24.48;57.10;99705.81;5033344;28;20037;-81
2022/08/19 10:35:29;;;;;;;19.48;14.13;;;;;;;24.12;57.30;99706.50;5034205;28;20037;-87
2022/08/19 10:37:58;;;;;;;22.75;12.60;;;;;;;24.19;57.48;99707.84;5053964;28;20431;-87
2022/08/19 10:40:24;;;;;;;20.92;14.65;;;;;;;24.34;57.00;99701.50;5038573;28;20467;-84
2022/08/19 10:42:49;;;;;;;18.58;12.95;;;;;;;24.51;57.08;99702.28;5014213;28;20045;-84
2022/08/19 10:45:15;;;;;;;15.70;10.57;;;;;;;24.57;55.88;99706.41;5033382;28;20112;-85
2022/08/19 10:47:40;;;;;;;16.52;11.73;;;;;;;24.68;55.58;99705.84;5045443;28;20034;-84
2022/08/19 10:52:50;;;;;;;14.13;9.68;;;;;;;24.85;53.27;99701.88;5053427;28;20788;-84
2022/08/19 10:58:11;;;;;;;16.05;10.05;;;;;;;25.06;53.85;99692.34;5051285;28;20060;-81
2022/08/19 11:00:36;;;;;;;18.70;9.80;;;;;;;24.89;53.56;99696.34;5033895;28;20045;-86
2022/08/19 11:03:02;;;;;;;17.95;12.18;;;;;;;24.90;54.03;99690.41;5033300;28;20086;-86
2022/08/19 11:05:27;;;;;;;18.88;11.57;;;;;;;24.76;53.55;99702.06;5033059;28;20073;-79
2022/08/19 11:07:52;;;;;;;18.80;11.33;;;;;;;24.91;53.04;99696.81;5012027;28;20049;-78
2022/08/19 11:10:18;;;;;;;14.85;10.15;;;;;;;25.18;53.63;99699.78;5045765;28;20367;-87
2022/08/19 11:12:45;;;;;;;16.80;12.43;;;;;;;25.30;52.78;99694.03;5053393;28;20381;-87
2022/08/19 11:15:10;;;;;;;12.05;9.30;;;;;;;25.57;52.44;99698.94;5053704;28;20120;-86
2022/08/19 11:17:42;;;;;;;22.73;12.35;;;;;;;25.55;52.25;99697.72;5053189;28;20134;-84
2022/08/19 11:20:08;;;;;;;20.40;11.10;;;;;;;25.34;51.90;99696.13;5055029;28;20033;-84
2022/08/19 11:22:34;;;;;;;15.27;11.10;;;;;;;25.30;51.92;99694.03;5057137;28;20495;-84
2022/08/19 11:24:59;;;;;;;14.98;10.70;;;;;;;25.46;52.49;99690.38;5056477;28;20041;-84
2022/08/19 11:27:25;;;;;;;16.02;9.70;;;;;;;25.66;51.78;99684.75;5054914;28;20036;-81
2022/08/19 11:29:52;;;;;;;16.55;10.35;;;;;;;25.58;51.92;99688.59;5044306;28;20045;-81
2022/08/19 11:32:17;;;;;;;12.98;9.43;;;;;;;25.61;51.63;99688.66;5037012;28;20069;-87
2022/08/19 11:34:42;;;;;;;15.33;8.53;;;;;;;25.71;50.96;99684.47;5036590;28;20099;-87
2022/08/19 11:37:08;;;;;;;14.47;9.53;;;;;;;25.63;50.57;99685.50;5035173;28;20049;-81
2022/08/19 11:39:36;;;;;;;16.08;10.35;;;;;;;25.54;50.17;99682.94;5043510;28;20277;-81
2022/08/19 11:42:54;;;;;;;16.20;11.25;;;;;;;25.61;50.62;99682.25;5045994;28;20048;-83
2022/08/19 11:44:49;;;;;;;18.48;11.48;;;;;;;25.66;50.99;99681.97;5049097;28;20091;-82